sensor_id;sensor_type;location;lat;lon;timestamp;P1;durP1;ratioP1;P2;durP2;ratioP2
24891;SDS011;12954;50.688;10.908;2023-03-01T00:01:35;22.52;;;15.68;;
24891;SDS011;12954;50.688;10.908;2023-03-01T00:04:04;20.23;;;15.10;;
24891;SDS011;12954;50.688;10.908;2023-03-01T00:06:32;21.50;;;16.08;;
24891;SDS011;12954;50.688;10.908;2023-03-01T00:09:02;22.33;;;15.00;;
24891;SDS011;12954;50.688;10.908;2023-03-01T00:11:31;20.73;;;14.98;;
24891;SDS011;12954;50.688;10.908;2023-03-01T00:14:01;20.48;;;14.82;;
24891;SDS011;12954;50.688;10.908;2023-03-01T00:16:34;21.15;;;14.48;;
24891;SDS011;12954;50.688;10.908;2023-03-01T00:19:05;21.63;;;14.63;;
24891;SDS011;12954;50.688;10.908;2023-03-01T00:21:34;21.13;;;15.05;;
24891;SDS011;12954;50.688;10.908;2023-03-01T00:24:04;20.60;;;14.05;;
24891;SDS011;12954;50.688;10.908;2023-03-01T00:26:33;19.80;;;13.73;;
24891;SDS011;12954;50.688;10.908;2023-03-01T00:29:01;20.42;;;13.90;;
24891;SDS011;12954;50.688;10.908;2023-03-01T00:31:32;22.05;;;14.32;;
24891;SDS011;12954;50.688;10.908;2023-03-01T00:34:02;18.45;;;14.65;;
24891;SDS011;12954;50.688;10.908;2023-03-01T00:36:33;19.90;;;14.23;;
24891;SDS011;12954;50.688;10.908;2023-03-01T00:39:05;19.33;;;13.73;;
24891;SDS011;12954;50.688;10.908;2023-03-01T00:41:37;19.27;;;14.10;;
24891;SDS011;12954;50.688;10.908;2023-03-01T00:44:06;18.77;;;13.77;;
24891;SDS011;12954;50.688;10.908;2023-03-01T00:46:34;18.10;;;13.50;;
24891;SDS011;12954;50.688;10.908;2023-03-01T00:49:03;18.52;;;13.23;;
24891;SDS011;12954;50.688;10.908;2023-03-01T00:51:32;18.65;;;13.27;;
24891;SDS011;12954;50.688;10.908;2023-03-01T00:54:01;19.77;;;13.45;;
24891;SDS011;12954;50.688;10.908;2023-03-01T00:56:31;17.60;;;13.38;;
24891;SDS011;12954;50.688;10.908;2023-03-01T00:59:00;18.27;;;13.57;;
24891;SDS011;12954;50.688;10.908;2023-03-01T01:01:29;18.70;;;14.38;;
24891;SDS011;12954;50.688;10.908;2023-03-01T01:03:59;20.52;;;14.18;;
24891;SDS011;12954;50.688;10.908;2023-03-01T01:06:29;18.42;;;13.73;;
24891;SDS011;12954;50.688;10.908;2023-03-01T01:08:59;17.77;;;13.38;;
24891;SDS011;12954;50.688;10.908;2023-03-01T01:11:28;20.77;;;13.82;;
24891;SDS011;12954;50.688;10.908;2023-03-01T01:13:58;17.55;;;13.25;;
24891;SDS011;12954;50.688;10.908;2023-03-01T01:16:27;18.77;;;13.50;;
24891;SDS011;12954;50.688;10.908;2023-03-01T01:18:57;19.70;;;13.30;;
24891;SDS011;12954;50.688;10.908;2023-03-01T01:21:26;17.70;;;12.27;;
24891;SDS011;12954;50.688;10.908;2023-03-01T01:23:55;17.85;;;12.75;;
24891;SDS011;12954;50.688;10.908;2023-03-01T01:26:25;15.82;;;11.82;;
24891;SDS011;12954;50.688;10.908;2023-03-01T01:28:57;19.42;;;13.40;;
24891;SDS011;12954;50.688;10.908;2023-03-01T01:31:26;19.40;;;13.25;;
24891;SDS011;12954;50.688;10.908;2023-03-01T01:33:56;18.65;;;13.25;;
24891;SDS011;12954;50.688;10.908;2023-03-01T01:36:27;18.27;;;13.15;;
24891;SDS011;12954;50.688;10.908;2023-03-01T01:38:57;19.38;;;13.30;;
24891;SDS011;12954;50.688;10.908;2023-03-01T01:41:27;17.70;;;13.45;;
24891;SDS011;12954;50.688;10.908;2023-03-01T01:46:54;17.38;;;12.65;;
24891;SDS011;12954;50.688;10.908;2023-03-01T01:49:27;17.98;;;13.18;;
24891;SDS011;12954;50.688;10.908;2023-03-01T01:52:02;18.52;;;13.73;;
24891;SDS011;12954;50.688;10.908;2023-03-01T01:54:37;17.50;;;13.15;;
24891;SDS011;12954;50.688;10.908;2023-03-01T01:57:10;17.23;;;13.13;;
24891;SDS011;12954;50.688;10.908;2023-03-01T01:59:45;18.05;;;13.07;;
24891;SDS011;12954;50.688;10.908;2023-03-01T02:02:18;17.38;;;13.07;;
24891;SDS011;12954;50.688;10.908;2023-03-01T02:04:48;18.65;;;13.35;;
24891;SDS011;12954;50.688;10.908;2023-03-01T02:07:20;16.80;;;12.88;;
24891;SDS011;12954;50.688;10.908;2023-03-01T02:09:51;17.45;;;12.77;;
24891;SDS011;12954;50.688;10.908;2023-03-01T02:12:21;18.25;;;13.38;;
24891;SDS011;12954;50.688;10.908;2023-03-01T02:14:53;17.65;;;13.48;;
24891;SDS011;12954;50.688;10.908;2023-03-01T02:17:21;19.13;;;13.48;;
24891;SDS011;12954;50.688;10.908;2023-03-01T02:19:53;18.17;;;13.00;;
24891;SDS011;12954;50.688;10.908;2023-03-01T02:22:34;17.23;;;12.60;;
24891;SDS011;12954;50.688;10.908;2023-03-01T02:25:11;19.92;;;13.35;;
24891;SDS011;12954;50.688;10.908;2023-03-01T02:27:49;20.85;;;13.57;;
24891;SDS011;12954;50.688;10.908;2023-03-01T02:30:25;19.05;;;13.35;;
24891;SDS011;12954;50.688;10.908;2023-03-01T02:32:54;20.13;;;13.02;;
24891;SDS011;12954;50.688;10.908;2023-03-01T02:35:29;20.17;;;12.45;;
24891;SDS011;12954;50.688;10.908;2023-03-01T02:38:01;20.63;;;13.55;;
24891;SDS011;12954;50.688;10.908;2023-03-01T02:40:31;20.10;;;13.85;;
24891;SDS011;12954;50.688;10.908;2023-03-01T02:43:04;19.98;;;13.27;;
24891;SDS011;12954;50.688;10.908;2023-03-01T02:45:38;16.98;;;12.95;;
24891;SDS011;12954;50.688;10.908;2023-03-01T02:48:15;18.55;;;13.10;;
24891;SDS011;12954;50.688;10.908;2023-03-01T02:50:52;18.65;;;12.57;;
24891;SDS011;12954;50.688;10.908;2023-03-01T02:53:32;17.20;;;12.90;;
24891;SDS011;12954;50.688;10.908;2023-03-01T02:56:10;15.93;;;12.23;;
24891;SDS011;12954;50.688;10.908;2023-03-01T02:58:39;20.00;;;14.00;;
24891;SDS011;12954;50.688;10.908;2023-03-01T03:01:15;19.42;;;13.80;;
24891;SDS011;12954;50.688;10.908;2023-03-01T03:03:44;18.88;;;13.57;;
24891;SDS011;12954;50.688;10.908;2023-03-01T03:06:13;17.73;;;13.68;;
24891;SDS011;12954;50.688;10.908;2023-03-01T03:08:41;19.95;;;13.52;;
24891;SDS011;12954;50.688;10.908;2023-03-01T03:11:10;18.75;;;13.32;;
24891;SDS011;12954;50.688;10.908;2023-03-01T03:13:38;19.90;;;14.00;;
24891;SDS011;12954;50.688;10.908;2023-03-01T03:16:16;21.65;;;13.70;;
24891;SDS011;12954;50.688;10.908;2023-03-01T03:18:44;18.48;;;13.45;;
24891;SDS011;12954;50.688;10.908;2023-03-01T03:21:13;21.85;;;14.23;;
24891;SDS011;12954;50.688;10.908;2023-03-01T03:23:41;19.27;;;14.23;;
24891;SDS011;12954;50.688;10.908;2023-03-01T03:26:10;20.92;;;13.95;;
24891;SDS011;12954;50.688;10.908;2023-03-01T03:28:41;18.58;;;13.80;;
24891;SDS011;12954;50.688;10.908;2023-03-01T03:31:10;18.80;;;13.80;;
24891;SDS011;12954;50.688;10.908;2023-03-01T03:33:40;18.02;;;13.05;;
24891;SDS011;12954;50.688;10.908;2023-03-01T03:36:08;20.02;;;13.73;;
24891;SDS011;12954;50.688;10.908;2023-03-01T03:38:39;20.52;;;14.10;;
24891;SDS011;12954;50.688;10.908;2023-03-01T03:41:08;17.98;;;13.85;;
24891;SDS011;12954;50.688;10.908;2023-03-01T03:43:37;18.83;;;13.27;;
24891;SDS011;12954;50.688;10.908;2023-03-01T03:46:06;24.38;;;14.77;;
24891;SDS011;12954;50.688;10.908;2023-03-01T03:48:35;19.88;;;14.13;;
24891;SDS011;12954;50.688;10.908;2023-03-01T03:51:07;20.92;;;14.57;;
24891;SDS011;12954;50.688;10.908;2023-03-01T03:53:38;19.02;;;14.23;;
24891;SDS011;12954;50.688;10.908;2023-03-01T03:56:06;22.15;;;14.07;;
24891;SDS011;12954;50.688;10.908;2023-03-01T03:58:35;19.48;;;14.32;;
24891;SDS011;12954;50.688;10.908;2023-03-01T04:01:03;23.35;;;15.23;;
24891;SDS011;12954;50.688;10.908;2023-03-01T04:03:32;22.02;;;13.95;;
24891;SDS011;12954;50.688;10.908;2023-03-01T04:06:01;20.92;;;13.95;;
24891;SDS011;12954;50.688;10.908;2023-03-01T04:08:31;19.10;;;13.25;;
24891;SDS011;12954;50.688;10.908;2023-03-01T04:11:01;21.27;;;14.00;;
24891;SDS011;12954;50.688;10.908;2023-03-01T04:13:51;18.60;;;13.55;;
24891;SDS011;12954;50.688;10.908;2023-03-01T04:16:21;20.98;;;13.93;;
24891;SDS011;12954;50.688;10.908;2023-03-01T04:18:50;22.52;;;14.07;;
24891;SDS011;12954;50.688;10.908;2023-03-01T04:21:20;19.13;;;14.25;;
24891;SDS011;12954;50.688;10.908;2023-03-01T04:23:50;19.75;;;14.18;;
24891;SDS011;12954;50.688;10.908;2023-03-01T04:26:19;21.23;;;14.43;;
24891;SDS011;12954;50.688;10.908;2023-03-01T04:28:47;18.50;;;13.35;;
24891;SDS011;12954;50.688;10.908;2023-03-01T04:31:17;20.42;;;13.43;;
24891;SDS011;12954;50.688;10.908;2023-03-01T04:33:48;20.48;;;14.20;;
24891;SDS011;12954;50.688;10.908;2023-03-01T04:36:19;18.67;;;13.70;;
24891;SDS011;12954;50.688;10.908;2023-03-01T04:38:51;18.98;;;13.32;;
24891;SDS011;12954;50.688;10.908;2023-03-01T04:41:21;21.65;;;14.63;;
24891;SDS011;12954;50.688;10.908;2023-03-01T04:43:51;17.25;;;12.23;;
24891;SDS011;12954;50.688;10.908;2023-03-01T04:46:20;20.75;;;12.63;;
24891;SDS011;12954;50.688;10.908;2023-03-01T04:48:55;26.88;;;17.70;;
24891;SDS011;12954;50.688;10.908;2023-03-01T04:51:23;26.77;;;17.23;;
24891;SDS011;12954;50.688;10.908;2023-03-01T04:53:53;19.95;;;13.65;;
24891;SDS011;12954;50.688;10.908;2023-03-01T04:56:21;19.90;;;14.68;;
24891;SDS011;12954;50.688;10.908;2023-03-01T04:58:52;20.00;;;14.07;;
24891;SDS011;12954;50.688;10.908;2023-03-01T05:01:21;19.05;;;13.85;;
24891;SDS011;12954;50.688;10.908;2023-03-01T05:03:50;20.63;;;15.32;;
24891;SDS011;12954;50.688;10.908;2023-03-01T05:06:20;23.70;;;14.77;;
24891;SDS011;12954;50.688;10.908;2023-03-01T05:08:48;22.77;;;15.40;;
24891;SDS011;12954;50.688;10.908;2023-03-01T05:11:18;19.95;;;13.98;;
24891;SDS011;12954;50.688;10.908;2023-03-01T05:13:47;20.80;;;13.70;;
24891;SDS011;12954;50.688;10.908;2023-03-01T05:16:16;20.33;;;14.43;;
24891;SDS011;12954;50.688;10.908;2023-03-01T05:18:46;20.05;;;13.85;;
24891;SDS011;12954;50.688;10.908;2023-03-01T05:21:17;21.40;;;14.65;;
24891;SDS011;12954;50.688;10.908;2023-03-01T05:23:45;21.98;;;13.85;;
24891;SDS011;12954;50.688;10.908;2023-03-01T05:26:13;19.52;;;13.68;;
24891;SDS011;12954;50.688;10.908;2023-03-01T05:29:00;20.80;;;14.50;;
24891;SDS011;12954;50.688;10.908;2023-03-01T05:31:29;22.13;;;13.95;;
24891;SDS011;12954;50.688;10.908;2023-03-01T05:33:58;22.88;;;15.02;;
24891;SDS011;12954;50.688;10.908;2023-03-01T05:36:26;28.48;;;18.85;;
24891;SDS011;12954;50.688;10.908;2023-03-01T05:38:55;29.23;;;19.40;;
24891;SDS011;12954;50.688;10.908;2023-03-01T05:41:23;22.70;;;14.73;;
24891;SDS011;12954;50.688;10.908;2023-03-01T05:43:51;22.38;;;15.25;;
24891;SDS011;12954;50.688;10.908;2023-03-01T05:46:21;21.92;;;15.13;;
24891;SDS011;12954;50.688;10.908;2023-03-01T05:48:51;20.98;;;14.85;;
24891;SDS011;12954;50.688;10.908;2023-03-01T05:51:19;21.63;;;15.05;;
24891;SDS011;12954;50.688;10.908;2023-03-01T05:53:48;20.65;;;13.93;;
24891;SDS011;12954;50.688;10.908;2023-03-01T05:56:17;23.70;;;15.00;;
24891;SDS011;12954;50.688;10.908;2023-03-01T05:58:45;20.33;;;14.18;;
24891;SDS011;12954;50.688;10.908;2023-03-01T06:01:15;26.05;;;15.82;;
24891;SDS011;12954;50.688;10.908;2023-03-01T06:03:45;32.47;;;20.65;;
24891;SDS011;12954;50.688;10.908;2023-03-01T06:06:14;30.00;;;20.17;;
24891;SDS011;12954;50.688;10.908;2023-03-01T06:08:43;75.45;;;39.00;;
24891;SDS011;12954;50.688;10.908;2023-03-01T06:11:11;41.08;;;23.80;;
24891;SDS011;12954;50.688;10.908;2023-03-01T06:13:40;38.83;;;23.48;;
24891;SDS011;12954;50.688;10.908;2023-03-01T06:16:09;28.77;;;19.00;;
24891;SDS011;12954;50.688;10.908;2023-03-01T06:18:38;26.08;;;17.20;;
24891;SDS011;12954;50.688;10.908;2023-03-01T06:21:09;26.98;;;18.20;;
24891;SDS011;12954;50.688;10.908;2023-03-01T06:23:38;32.05;;;19.67;;
24891;SDS011;12954;50.688;10.908;2023-03-01T06:26:06;32.08;;;18.85;;
24891;SDS011;12954;50.688;10.908;2023-03-01T06:28:36;23.15;;;16.23;;
24891;SDS011;12954;50.688;10.908;2023-03-01T06:31:04;23.73;;;17.85;;
24891;SDS011;12954;50.688;10.908;2023-03-01T06:33:35;29.38;;;20.27;;
24891;SDS011;12954;50.688;10.908;2023-03-01T06:36:04;32.15;;;20.90;;
24891;SDS011;12954;50.688;10.908;2023-03-01T06:38:34;32.92;;;21.45;;
24891;SDS011;12954;50.688;10.908;2023-03-01T06:41:02;23.73;;;16.42;;
24891;SDS011;12954;50.688;10.908;2023-03-01T06:43:31;28.15;;;18.00;;
24891;SDS011;12954;50.688;10.908;2023-03-01T06:45:59;28.52;;;17.75;;
24891;SDS011;12954;50.688;10.908;2023-03-01T06:48:28;30.63;;;17.95;;
24891;SDS011;12954;50.688;10.908;2023-03-01T06:50:57;25.30;;;17.27;;
24891;SDS011;12954;50.688;10.908;2023-03-01T06:53:27;27.67;;;16.83;;
24891;SDS011;12954;50.688;10.908;2023-03-01T06:55:57;26.35;;;17.13;;
24891;SDS011;12954;50.688;10.908;2023-03-01T06:58:26;27.38;;;18.63;;
24891;SDS011;12954;50.688;10.908;2023-03-01T07:00:55;27.13;;;18.25;;
24891;SDS011;12954;50.688;10.908;2023-03-01T07:03:23;29.52;;;19.20;;
24891;SDS011;12954;50.688;10.908;2023-03-01T07:05:51;26.50;;;17.38;;
24891;SDS011;12954;50.688;10.908;2023-03-01T07:08:20;31.45;;;18.90;;
24891;SDS011;12954;50.688;10.908;2023-03-01T07:10:48;26.70;;;18.02;;
24891;SDS011;12954;50.688;10.908;2023-03-01T07:13:24;26.25;;;18.58;;
24891;SDS011;12954;50.688;10.908;2023-03-01T07:15:53;24.20;;;18.38;;
24891;SDS011;12954;50.688;10.908;2023-03-01T07:18:21;24.33;;;17.00;;
24891;SDS011;12954;50.688;10.908;2023-03-01T07:20:50;29.45;;;19.98;;
24891;SDS011;12954;50.688;10.908;2023-03-01T07:23:18;25.10;;;17.55;;
24891;SDS011;12954;50.688;10.908;2023-03-01T07:25:51;25.25;;;17.95;;
24891;SDS011;12954;50.688;10.908;2023-03-01T07:28:20;26.85;;;19.20;;
24891;SDS011;12954;50.688;10.908;2023-03-01T07:30:52;27.20;;;18.58;;
24891;SDS011;12954;50.688;10.908;2023-03-01T07:33:21;25.67;;;15.00;;
24891;SDS011;12954;50.688;10.908;2023-03-01T07:35:55;20.20;;;14.40;;
24891;SDS011;12954;50.688;10.908;2023-03-01T07:38:24;22.52;;;14.95;;
24891;SDS011;12954;50.688;10.908;2023-03-01T07:40:52;22.83;;;17.00;;
24891;SDS011;12954;50.688;10.908;2023-03-01T07:43:25;22.73;;;16.88;;
24891;SDS011;12954;50.688;10.908;2023-03-01T07:45:53;21.70;;;15.30;;
24891;SDS011;12954;50.688;10.908;2023-03-01T07:48:22;20.73;;;14.57;;
24891;SDS011;12954;50.688;10.908;2023-03-01T07:50:50;19.45;;;14.77;;
24891;SDS011;12954;50.688;10.908;2023-03-01T07:53:20;18.85;;;14.15;;
24891;SDS011;12954;50.688;10.908;2023-03-01T07:55:48;21.60;;;14.52;;
24891;SDS011;12954;50.688;10.908;2023-03-01T07:58:16;21.08;;;14.60;;
24891;SDS011;12954;50.688;10.908;2023-03-01T08:00:46;22.33;;;14.88;;
24891;SDS011;12954;50.688;10.908;2023-03-01T08:03:14;24.30;;;14.88;;
24891;SDS011;12954;50.688;10.908;2023-03-01T08:05:41;18.40;;;13.95;;
24891;SDS011;12954;50.688;10.908;2023-03-01T08:08:10;20.33;;;14.13;;
24891;SDS011;12954;50.688;10.908;2023-03-01T08:10:38;19.98;;;14.90;;
24891;SDS011;12954;50.688;10.908;2023-03-01T08:13:06;22.30;;;14.88;;
24891;SDS011;12954;50.688;10.908;2023-03-01T08:15:35;19.90;;;13.90;;
24891;SDS011;12954;50.688;10.908;2023-03-01T08:18:05;22.70;;;15.32;;
24891;SDS011;12954;50.688;10.908;2023-03-01T08:20:33;23.83;;;15.20;;
24891;SDS011;12954;50.688;10.908;2023-03-01T08:23:02;22.08;;;15.10;;
24891;SDS011;12954;50.688;10.908;2023-03-01T08:25:30;22.15;;;15.60;;
24891;SDS011;12954;50.688;10.908;2023-03-01T08:27:59;20.90;;;14.80;;
24891;SDS011;12954;50.688;10.908;2023-03-01T08:30:27;25.77;;;16.20;;
24891;SDS011;12954;50.688;10.908;2023-03-01T08:32:55;21.85;;;14.65;;
24891;SDS011;12954;50.688;10.908;2023-03-01T08:35:25;21.77;;;15.10;;
24891;SDS011;12954;50.688;10.908;2023-03-01T08:37:54;23.67;;;15.05;;
24891;SDS011;12954;50.688;10.908;2023-03-01T08:40:23;21.50;;;14.73;;
24891;SDS011;12954;50.688;10.908;2023-03-01T08:42:51;20.92;;;14.38;;
24891;SDS011;12954;50.688;10.908;2023-03-01T08:45:19;21.67;;;15.45;;
24891;SDS011;12954;50.688;10.908;2023-03-01T08:47:51;23.30;;;14.15;;
24891;SDS011;12954;50.688;10.908;2023-03-01T08:50:20;21.45;;;14.60;;
24891;SDS011;12954;50.688;10.908;2023-03-01T08:52:52;23.98;;;15.02;;
24891;SDS011;12954;50.688;10.908;2023-03-01T08:55:20;21.45;;;15.23;;
24891;SDS011;12954;50.688;10.908;2023-03-01T08:57:49;23.95;;;15.07;;
24891;SDS011;12954;50.688;10.908;2023-03-01T09:00:17;21.35;;;15.00;;
24891;SDS011;12954;50.688;10.908;2023-03-01T09:02:46;20.38;;;14.00;;
24891;SDS011;12954;50.688;10.908;2023-03-01T09:05:15;20.58;;;14.80;;
24891;SDS011;12954;50.688;10.908;2023-03-01T09:07:45;29.88;;;15.00;;
24891;SDS011;12954;50.688;10.908;2023-03-01T09:10:15;15.77;;;12.75;;
24891;SDS011;12954;50.688;10.908;2023-03-01T09:12:44;17.50;;;12.90;;
24891;SDS011;12954;50.688;10.908;2023-03-01T09:15:12;24.05;;;13.20;;
24891;SDS011;12954;50.688;10.908;2023-03-01T09:17:40;20.45;;;13.88;;
24891;SDS011;12954;50.688;10.908;2023-03-01T09:20:09;20.90;;;13.82;;
24891;SDS011;12954;50.688;10.908;2023-03-01T09:22:38;19.73;;;13.73;;
24891;SDS011;12954;50.688;10.908;2023-03-01T09:25:07;21.48;;;13.98;;
24891;SDS011;12954;50.688;10.908;2023-03-01T09:27:37;17.65;;;11.75;;
24891;SDS011;12954;50.688;10.908;2023-03-01T09:30:06;18.77;;;12.82;;
24891;SDS011;12954;50.688;10.908;2023-03-01T09:32:36;21.75;;;12.88;;
24891;SDS011;12954;50.688;10.908;2023-03-01T09:35:09;18.90;;;12.73;;
24891;SDS011;12954;50.688;10.908;2023-03-01T09:37:37;20.17;;;13.40;;
24891;SDS011;12954;50.688;10.908;2023-03-01T09:40:06;17.38;;;12.15;;
24891;SDS011;12954;50.688;10.908;2023-03-01T09:42:47;18.65;;;12.88;;
24891;SDS011;12954;50.688;10.908;2023-03-01T09:45:23;20.42;;;13.63;;
24891;SDS011;12954;50.688;10.908;2023-03-01T09:47:56;18.27;;;12.88;;
24891;SDS011;12954;50.688;10.908;2023-03-01T09:50:24;18.60;;;12.75;;
24891;SDS011;12954;50.688;10.908;2023-03-01T09:53:00;17.80;;;13.40;;
24891;SDS011;12954;50.688;10.908;2023-03-01T09:55:33;18.08;;;13.77;;
24891;SDS011;12954;50.688;10.908;2023-03-01T09:58:21;16.70;;;12.50;;
24891;SDS011;12954;50.688;10.908;2023-03-01T10:01:10;19.55;;;13.82;;
24891;SDS011;12954;50.688;10.908;2023-03-01T10:03:57;18.77;;;13.98;;
24891;SDS011;12954;50.688;10.908;2023-03-01T10:06:32;22.38;;;13.60;;
24891;SDS011;12954;50.688;10.908;2023-03-01T10:09:02;19.30;;;14.25;;
24891;SDS011;12954;50.688;10.908;2023-03-01T10:11:35;20.77;;;15.30;;
24891;SDS011;12954;50.688;10.908;2023-03-01T10:14:12;27.13;;;14.13;;
24891;SDS011;12954;50.688;10.908;2023-03-01T10:16:48;22.10;;;15.18;;
24891;SDS011;12954;50.688;10.908;2023-03-01T10:21:50;18.27;;;14.20;;
24891;SDS011;12954;50.688;10.908;2023-03-01T10:24:19;18.33;;;14.30;;
24891;SDS011;12954;50.688;10.908;2023-03-01T10:26:50;21.73;;;13.70;;
24891;SDS011;12954;50.688;10.908;2023-03-01T10:29:25;21.50;;;14.05;;
24891;SDS011;12954;50.688;10.908;2023-03-01T10:31:59;23.20;;;13.25;;
24891;SDS011;12954;50.688;10.908;2023-03-01T10:34:29;16.60;;;12.93;;
24891;SDS011;12954;50.688;10.908;2023-03-01T10:37:01;16.58;;;13.25;;
24891;SDS011;12954;50.688;10.908;2023-03-01T10:39:36;18.67;;;12.25;;
24891;SDS011;12954;50.688;10.908;2023-03-01T10:42:22;23.95;;;13.80;;
24891;SDS011;12954;50.688;10.908;2023-03-01T10:44:56;19.67;;;12.30;;
24891;SDS011;12954;50.688;10.908;2023-03-01T10:47:26;22.83;;;13.90;;
24891;SDS011;12954;50.688;10.908;2023-03-01T10:49:57;19.98;;;13.23;;
24891;SDS011;12954;50.688;10.908;2023-03-01T10:52:32;17.63;;;12.93;;
24891;SDS011;12954;50.688;10.908;2023-03-01T10:55:04;19.55;;;13.80;;
24891;SDS011;12954;50.688;10.908;2023-03-01T10:57:56;19.75;;;12.57;;
24891;SDS011;12954;50.688;10.908;2023-03-01T11:00:45;20.35;;;12.13;;
24891;SDS011;12954;50.688;10.908;2023-03-01T11:03:17;19.58;;;12.02;;
24891;SDS011;12954;50.688;10.908;2023-03-01T11:05:52;24.98;;;14.60;;
24891;SDS011;12954;50.688;10.908;2023-03-01T11:08:31;18.13;;;14.02;;
24891;SDS011;12954;50.688;10.908;2023-03-01T11:11:14;17.20;;;13.75;;
24891;SDS011;12954;50.688;10.908;2023-03-01T11:13:54;15.48;;;13.85;;
24891;SDS011;12954;50.688;10.908;2023-03-01T11:16:26;20.30;;;15.43;;
24891;SDS011;12954;50.688;10.908;2023-03-01T11:19:03;18.42;;;12.63;;
24891;SDS011;12954;50.688;10.908;2023-03-01T11:21:46;24.20;;;15.50;;
24891;SDS011;12954;50.688;10.908;2023-03-01T11:24:19;21.52;;;13.55;;
24891;SDS011;12954;50.688;10.908;2023-03-01T11:26:54;19.02;;;13.93;;
24891;SDS011;12954;50.688;10.908;2023-03-01T11:29:26;18.40;;;13.88;;
24891;SDS011;12954;50.688;10.908;2023-03-01T11:32:14;18.42;;;14.60;;
24891;SDS011;12954;50.688;10.908;2023-03-01T11:34:44;24.52;;;13.93;;
24891;SDS011;12954;50.688;10.908;2023-03-01T11:37:21;19.52;;;14.65;;
24891;SDS011;12954;50.688;10.908;2023-03-01T11:39:59;18.20;;;14.45;;
24891;SDS011;12954;50.688;10.908;2023-03-01T11:42:40;19.30;;;13.73;;
24891;SDS011;12954;50.688;10.908;2023-03-01T11:45:15;19.23;;;14.35;;
24891;SDS011;12954;50.688;10.908;2023-03-01T11:50:35;16.63;;;14.18;;
24891;SDS011;12954;50.688;10.908;2023-03-01T11:53:16;17.48;;;13.98;;
24891;SDS011;12954;50.688;10.908;2023-03-01T11:55:57;19.13;;;14.07;;
24891;SDS011;12954;50.688;10.908;2023-03-01T11:58:45;17.33;;;13.32;;
24891;SDS011;12954;50.688;10.908;2023-03-01T12:01:25;22.10;;;14.73;;
24891;SDS011;12954;50.688;10.908;2023-03-01T12:04:21;20.85;;;14.23;;
24891;SDS011;12954;50.688;10.908;2023-03-01T12:07:02;21.90;;;14.15;;
24891;SDS011;12954;50.688;10.908;2023-03-01T12:09:44;18.95;;;14.00;;
24891;SDS011;12954;50.688;10.908;2023-03-01T12:12:26;19.50;;;14.15;;
24891;SDS011;12954;50.688;10.908;2023-03-01T12:15:07;16.38;;;14.63;;
24891;SDS011;12954;50.688;10.908;2023-03-01T12:20:51;21.20;;;12.68;;
24891;SDS011;12954;50.688;10.908;2023-03-01T12:23:36;18.42;;;13.48;;
24891;SDS011;12954;50.688;10.908;2023-03-01T12:26:18;18.90;;;13.90;;
24891;SDS011;12954;50.688;10.908;2023-03-01T12:31:53;18.50;;;15.55;;
24891;SDS011;12954;50.688;10.908;2023-03-01T12:37:41;19.42;;;13.63;;
24891;SDS011;12954;50.688;10.908;2023-03-01T12:40:28;18.80;;;14.27;;
24891;SDS011;12954;50.688;10.908;2023-03-01T12:43:22;19.13;;;15.90;;
24891;SDS011;12954;50.688;10.908;2023-03-01T12:46:09;19.98;;;15.05;;
24891;SDS011;12954;50.688;10.908;2023-03-01T12:48:46;17.58;;;15.02;;
24891;SDS011;12954;50.688;10.908;2023-03-01T12:51:24;17.67;;;14.95;;
24891;SDS011;12954;50.688;10.908;2023-03-01T12:53:59;19.23;;;13.45;;
24891;SDS011;12954;50.688;10.908;2023-03-01T12:56:34;19.08;;;13.88;;
24891;SDS011;12954;50.688;10.908;2023-03-01T13:01:41;19.60;;;14.95;;
24891;SDS011;12954;50.688;10.908;2023-03-01T13:04:30;21.33;;;15.52;;
24891;SDS011;12954;50.688;10.908;2023-03-01T13:07:15;22.15;;;14.63;;
24891;SDS011;12954;50.688;10.908;2023-03-01T13:09:54;17.50;;;14.20;;
24891;SDS011;12954;50.688;10.908;2023-03-01T13:12:43;18.63;;;14.70;;
24891;SDS011;12954;50.688;10.908;2023-03-01T13:15:26;21.77;;;14.43;;
24891;SDS011;12954;50.688;10.908;2023-03-01T13:17:56;18.90;;;13.18;;
24891;SDS011;12954;50.688;10.908;2023-03-01T13:20:27;17.35;;;14.55;;
24891;SDS011;12954;50.688;10.908;2023-03-01T13:23:03;18.90;;;15.77;;
24891;SDS011;12954;50.688;10.908;2023-03-01T13:25:37;25.10;;;17.23;;
24891;SDS011;12954;50.688;10.908;2023-03-01T13:28:39;20.20;;;16.30;;
24891;SDS011;12954;50.688;10.908;2023-03-01T13:34:40;19.38;;;15.07;;
24891;SDS011;12954;50.688;10.908;2023-03-01T13:37:23;19.35;;;15.57;;
24891;SDS011;12954;50.688;10.908;2023-03-01T13:39:57;20.02;;;14.98;;
24891;SDS011;12954;50.688;10.908;2023-03-01T13:42:34;21.67;;;15.82;;
24891;SDS011;12954;50.688;10.908;2023-03-01T13:45:12;18.48;;;16.55;;
24891;SDS011;12954;50.688;10.908;2023-03-01T13:47:45;22.20;;;15.80;;
24891;SDS011;12954;50.688;10.908;2023-03-01T13:50:16;24.77;;;15.00;;
24891;SDS011;12954;50.688;10.908;2023-03-01T13:52:49;20.20;;;16.73;;
24891;SDS011;12954;50.688;10.908;2023-03-01T13:55:21;19.55;;;14.73;;
24891;SDS011;12954;50.688;10.908;2023-03-01T13:57:55;23.85;;;16.48;;
24891;SDS011;12954;50.688;10.908;2023-03-01T14:00:30;19.40;;;15.20;;
24891;SDS011;12954;50.688;10.908;2023-03-01T14:03:03;22.48;;;15.48;;
24891;SDS011;12954;50.688;10.908;2023-03-01T14:05:43;18.80;;;14.63;;
24891;SDS011;12954;50.688;10.908;2023-03-01T14:08:39;18.42;;;16.15;;
24891;SDS011;12954;50.688;10.908;2023-03-01T14:17:24;18.77;;;14.10;;
24891;SDS011;12954;50.688;10.908;2023-03-01T14:20:09;22.80;;;15.35;;
24891;SDS011;12954;50.688;10.908;2023-03-01T14:22:41;19.88;;;13.43;;
24891;SDS011;12954;50.688;10.908;2023-03-01T14:25:18;19.52;;;15.05;;
24891;SDS011;12954;50.688;10.908;2023-03-01T14:27:58;20.05;;;13.52;;
24891;SDS011;12954;50.688;10.908;2023-03-01T14:30:34;16.42;;;13.98;;
24891;SDS011;12954;50.688;10.908;2023-03-01T14:33:06;18.48;;;13.48;;
24891;SDS011;12954;50.688;10.908;2023-03-01T14:35:52;19.73;;;15.10;;
24891;SDS011;12954;50.688;10.908;2023-03-01T14:38:22;17.67;;;13.65;;
24891;SDS011;12954;50.688;10.908;2023-03-01T14:40:56;17.23;;;12.52;;
24891;SDS011;12954;50.688;10.908;2023-03-01T14:43:29;18.38;;;12.20;;
24891;SDS011;12954;50.688;10.908;2023-03-01T14:46:00;16.55;;;13.02;;
24891;SDS011;12954;50.688;10.908;2023-03-01T14:48:29;19.88;;;13.60;;
24891;SDS011;12954;50.688;10.908;2023-03-01T14:51:00;22.17;;;15.38;;
24891;SDS011;12954;50.688;10.908;2023-03-01T14:53:29;17.67;;;13.50;;
24891;SDS011;12954;50.688;10.908;2023-03-01T14:56:16;18.45;;;12.35;;
24891;SDS011;12954;50.688;10.908;2023-03-01T14:58:45;17.80;;;12.93;;
24891;SDS011;12954;50.688;10.908;2023-03-01T15:01:16;17.38;;;12.07;;
24891;SDS011;12954;50.688;10.908;2023-03-01T15:03:46;16.25;;;12.85;;
24891;SDS011;12954;50.688;10.908;2023-03-01T15:06:17;21.35;;;12.18;;
24891;SDS011;12954;50.688;10.908;2023-03-01T15:08:48;16.52;;;12.75;;